Time,TemperatureF,DewpointF,PressureIn,WindDirection,WindDirectionDegrees,WindSpeedMPH,WindSpeedGustMPH,Humidity,HourlyPrecipIn,Conditions,Clouds,dailyrainin,SoftwareType,DateUTC
2013-01-02 00:03:00,-999.0,-99.9,-100.00,WNW,297,13.0,17.0,-999,-99.99,,,-99.99,,2013-01-02 05:03:00,
2013-01-02 00:12:00,-999.0,-99.9,-100.00,WNW,296,13.0,16.0,-999,-99.99,,,-99.99,,2013-01-02 05:12:00,
2013-01-02 00:23:00,-999.0,-99.9,-100.00,WNW,297,13.0,16.0,-999,-99.99,,,-99.99,,2013-01-02 05:23:00,
2013-01-02 00:33:00,-999.0,-99.9,-100.00,WNW,297,14.0,16.0,-999,-99.99,,,-99.99,,2013-01-02 05:33:00,
2013-01-02 00:43:00,-999.0,-99.9,-100.00,WNW,300,15.0,17.0,-999,-99.99,,,-99.99,,2013-01-02 05:43:00,
2013-01-02 00:53:00,-999.0,-99.9,-100.00,WNW,298,15.0,18.0,-999,-99.99,,,-99.99,,2013-01-02 05:53:00,
2013-01-02 01:02:00,-999.0,-99.9,-100.00,WNW,299,14.0,17.0,-999,-99.99,,,-99.99,,2013-01-02 06:02:00,
2013-01-02 01:12:00,-999.0,-99.9,-100.00,WNW,299,13.0,17.0,-999,-99.99,,,-99.99,,2013-01-02 06:12:00,
2013-01-02 01:22:00,-999.0,-99.9,-100.00,WNW,292,13.0,15.0,-999,-99.99,,,-99.99,,2013-01-02 06:22:00,
2013-01-02 01:33:00,-999.0,-99.9,-100.00,WNW,291,14.0,18.0,-999,-99.99,,,-99.99,,2013-01-02 06:33:00,
2013-01-02 01:43:00,-999.0,-99.9,-100.00,WNW,296,16.0,18.0,-999,-99.99,,,-99.99,,2013-01-02 06:43:00,
2013-01-02 01:53:00,-999.0,-99.9,-100.00,WNW,301,17.0,19.0,-999,-99.99,,,-99.99,,2013-01-02 06:53:00,
2013-01-02 02:02:00,-999.0,-99.9,-100.00,WNW,292,14.0,17.0,-999,-99.99,,,-99.99,,2013-01-02 07:02:00,
2013-01-02 02:12:00,-999.0,-99.9,-100.00,WNW,298,14.0,18.0,-999,-99.99,,,-99.99,,2013-01-02 07:12:00,
2013-01-02 02:22:00,-999.0,-99.9,-100.00,WNW,299,15.0,17.0,-999,-99.99,,,-99.99,,2013-01-02 07:22:00,
2013-01-02 02:32:00,-999.0,-99.9,-100.00,NW,306,13.0,16.0,-999,-99.99,,,-99.99,,2013-01-02 07:32:00,
2013-01-02 02:42:00,-999.0,-99.9,-100.00,NW,304,14.0,17.0,-999,-99.99,,,-99.99,,2013-01-02 07:42:00,
2013-01-02 02:52:00,-999.0,-99.9,-100.00,WNW,302,15.0,18.0,-999,-99.99,,,-99.99,,2013-01-02 07:52:00,
2013-01-02 03:02:00,-999.0,-99.9,-100.00,WNW,296,14.0,19.0,-999,-99.99,,,-99.99,,2013-01-02 08:02:00,
2013-01-02 03:12:00,-999.0,-99.9,-100.00,WNW,293,15.0,18.0,-999,-99.99,,,-99.99,,2013-01-02 08:12:00,
2013-01-02 03:22:00,-999.0,-99.9,-100.00,WNW,289,15.0,19.0,-999,-99.99,,,-99.99,,2013-01-02 08:22:00,
2013-01-02 03:32:00,-999.0,-99.9,-100.00,WNW,283,18.0,24.0,-999,-99.99,,,-99.99,,2013-01-02 08:32:00,
2013-01-02 03:42:00,-999.0,-99.9,-100.00,WNW,284,17.0,19.0,-999,-99.99,,,-99.99,,2013-01-02 08:42:00,
2013-01-02 03:53:00,-999.0,-99.9,-100.00,WNW,292,16.0,21.0,-999,-99.99,,,-99.99,,2013-01-02 08:53:00,
2013-01-02 04:02:00,-999.0,-99.9,-100.00,WNW,287,19.0,24.0,-999,-99.99,,,-99.99,,2013-01-02 09:02:00,
2013-01-02 04:12:00,-999.0,-99.9,-100.00,WNW,288,18.0,23.0,-999,-99.99,,,-99.99,,2013-01-02 09:12:00,
2013-01-02 04:22:00,-999.0,-99.9,-100.00,WNW,287,22.0,26.0,-999,-99.99,,,-99.99,,2013-01-02 09:22:00,
2013-01-02 04:32:00,-999.0,-99.9,-100.00,WNW,282,20.0,27.0,-999,-99.99,,,-99.99,,2013-01-02 09:32:00,
2013-01-02 04:43:00,-999.0,-99.9,-100.00,West,278,20.0,25.0,-999,-99.99,,,-99.99,,2013-01-02 09:43:00,
2013-01-02 04:53:00,-999.0,-99.9,-100.00,West,268,22.0,28.0,-999,-99.99,,,-99.99,,2013-01-02 09:53:00,
2013-01-02 05:02:00,-999.0,-99.9,-100.00,West,272,20.0,25.0,-999,-99.99,,,-99.99,,2013-01-02 10:02:00,
2013-01-02 05:12:00,-999.0,-99.9,-100.00,West,276,19.0,24.0,-999,-99.99,,,-99.99,,2013-01-02 10:12:00,
2013-01-02 05:22:00,-999.0,-99.9,-100.00,West,266,23.0,27.0,-999,-99.99,,,-99.99,,2013-01-02 10:22:00,
2013-01-02 05:33:00,-999.0,-99.9,-100.00,West,269,23.0,28.0,-999,-99.99,,,-99.99,,2013-01-02 10:33:00,
2013-01-02 05:43:00,-999.0,-99.9,-100.00,WNW,282,21.0,28.0,-999,-99.99,,,-99.99,,2013-01-02 10:43:00,
2013-01-02 05:53:00,-999.0,-99.9,-100.00,WNW,289,23.0,28.0,-999,-99.99,,,-99.99,,2013-01-02 10:53:00,
2013-01-02 06:02:00,-999.0,-99.9,-100.00,WNW,295,22.0,25.0,-999,-99.99,,,-99.99,,2013-01-02 11:02:00,
2013-01-02 06:12:00,-999.0,-99.9,-100.00,WNW,289,19.0,26.0,-999,-99.99,,,-99.99,,2013-01-02 11:12:00,
2013-01-02 06:22:00,-999.0,-99.9,-100.00,WNW,299,19.0,21.0,-999,-99.99,,,-99.99,,2013-01-02 11:22:00,
2013-01-02 06:33:00,-999.0,-99.9,-100.00,WNW,288,16.0,21.0,-999,-99.99,,,-99.99,,2013-01-02 11:33:00,
2013-01-02 06:43:00,-999.0,-99.9,-100.00,WNW,290,16.0,19.0,-999,-99.99,,,-99.99,,2013-01-02 11:43:00,
2013-01-02 06:53:00,-999.0,-99.9,-100.00,WNW,294,15.0,20.0,-999,-99.99,,,-99.99,,2013-01-02 11:53:00,
2013-01-02 07:03:00,-999.0,-99.9,-100.00,WNW,294,18.0,23.0,-999,-99.99,,,-99.99,,2013-01-02 12:03:00,
2013-01-02 07:12:00,-999.0,-99.9,-100.00,WNW,293,18.0,23.0,-999,-99.99,,,-99.99,,2013-01-02 12:12:00,
2013-01-02 07:22:00,-999.0,-99.9,-100.00,WNW,292,20.0,24.0,-999,-99.99,,,-99.99,,2013-01-02 12:22:00,
2013-01-02 07:33:00,-999.0,-99.9,-100.00,WNW,294,20.0,26.0,-999,-99.99,,,-99.99,,2013-01-02 12:33:00,
2013-01-02 07:43:00,-999.0,-99.9,-100.00,WNW,291,21.0,25.0,-999,-99.99,,,-99.99,,2013-01-02 12:43:00,
2013-01-02 07:53:00,-999.0,-99.9,-100.00,West,276,21.0,24.0,-999,-99.99,,,-99.99,,2013-01-02 12:53:00,
2013-01-02 08:03:00,-999.0,-99.9,-100.00,West,269,24.0,29.0,-999,-99.99,,,-99.99,,2013-01-02 13:03:00,
2013-01-02 08:13:00,-999.0,-99.9,-100.00,West,268,21.0,27.0,-999,-99.99,,,-99.99,,2013-01-02 13:13:00,
2013-01-02 08:22:00,-999.0,-99.9,-100.00,West,261,22.0,27.0,-999,-99.99,,,-99.99,,2013-01-02 13:22:00,
2013-01-02 08:33:00,-999.0,-99.9,-100.00,WSW,253,24.0,28.0,-999,-99.99,,,-99.99,,2013-01-02 13:33:00,
2013-01-02 08:43:00,-999.0,-99.9,-100.00,WSW,253,24.0,28.0,-999,-99.99,,,-99.99,,2013-01-02 13:43:00,
2013-01-02 08:53:00,-999.0,-99.9,-100.00,WSW,254,23.0,28.0,-999,-99.99,,,-99.99,,2013-01-02 13:53:00,
2013-01-02 09:03:00,-999.0,-99.9,-100.00,WSW,255,22.0,26.0,-999,-99.99,,,-99.99,,2013-01-02 14:03:00,
2013-01-02 09:13:00,-999.0,-99.9,-100.00,West,260,22.0,28.0,-999,-99.99,,,-99.99,,2013-01-02 14:13:00,
2013-01-02 09:23:00,-999.0,-99.9,-100.00,West,263,22.0,27.0,-999,-99.99,,,-99.99,,2013-01-02 14:23:00,
2013-01-02 09:33:00,-999.0,-99.9,-100.00,West,264,20.0,25.0,-999,-99.99,,,-99.99,,2013-01-02 14:33:00,
2013-01-02 09:43:00,-999.0,-99.9,-100.00,West,261,22.0,25.0,-999,-99.99,,,-99.99,,2013-01-02 14:43:00,
2013-01-02 09:53:00,-999.0,-99.9,-100.00,West,259,23.0,26.0,-999,-99.99,,,-99.99,,2013-01-02 14:53:00,
2013-01-02 10:03:00,-999.0,-99.9,-100.00,West,268,22.0,27.0,-999,-99.99,,,-99.99,,2013-01-02 15:03:00,
2013-01-02 10:13:00,-999.0,-99.9,-100.00,West,271,21.0,25.0,-999,-99.99,,,-99.99,,2013-01-02 15:13:00,
2013-01-02 10:23:00,-999.0,-99.9,-100.00,West,263,21.0,25.0,-999,-99.99,,,-99.99,,2013-01-02 15:23:00,
2013-01-02 10:33:00,-999.0,-99.9,-100.00,WSW,255,21.0,26.0,-999,-99.99,,,-99.99,,2013-01-02 15:33:00,
2013-01-02 10:43:00,-999.0,-99.9,-100.00,WSW,251,21.0,27.0,-999,-99.99,,,-99.99,,2013-01-02 15:43:00,
2013-01-02 10:53:00,-999.0,-99.9,-100.00,West,259,20.0,25.0,-999,-99.99,,,-99.99,,2013-01-02 15:53:00,
2013-01-02 11:03:00,-999.0,-99.9,-100.00,West,262,21.0,23.0,-999,-99.99,,,-99.99,,2013-01-02 16:03:00,
2013-01-02 11:13:00,-999.0,-99.9,-100.00,West,260,20.0,24.0,-999,-99.99,,,-99.99,,2013-01-02 16:13:00,
2013-01-02 11:22:00,-999.0,-99.9,-100.00,West,268,20.0,23.0,-999,-99.99,,,-99.99,,2013-01-02 16:22:00,
2013-01-02 11:33:00,-999.0,-99.9,-100.00,West,268,20.0,24.0,-999,-99.99,,,-99.99,,2013-01-02 16:33:00,
2013-01-02 11:43:00,-999.0,-99.9,-100.00,West,267,21.0,24.0,-999,-99.99,,,-99.99,,2013-01-02 16:43:00,
2013-01-02 11:54:00,-999.0,-99.9,-100.00,West,266,21.0,25.0,-999,-99.99,,,-99.99,,2013-01-02 16:54:00,
2013-01-02 12:04:00,-999.0,-99.9,-100.00,WSW,258,21.0,26.0,-999,-99.99,,,-99.99,,2013-01-02 17:04:00,
2013-01-02 12:13:00,-999.0,-99.9,-100.00,WSW,256,21.0,25.0,-999,-99.99,,,-99.99,,2013-01-02 17:13:00,
2013-01-02 12:23:00,-999.0,-99.9,-100.00,WSW,254,21.0,25.0,-999,-99.99,,,-99.99,,2013-01-02 17:23:00,
2013-01-02 12:33:00,-999.0,-99.9,-100.00,WSW,249,21.0,24.0,-999,-99.99,,,-99.99,,2013-01-02 17:33:00,
2013-01-02 12:43:00,-999.0,-99.9,-100.00,West,261,21.0,24.0,-999,-99.99,,,-99.99,,2013-01-02 17:43:00,
2013-01-02 12:54:00,-999.0,-99.9,-100.00,West,263,20.0,24.0,-999,-99.99,,,-99.99,,2013-01-02 17:54:00,
2013-01-02 13:03:00,-999.0,-99.9,-100.00,West,265,21.0,25.0,-999,-99.99,,,-99.99,,2013-01-02 18:03:00,
2013-01-02 13:13:00,-999.0,-99.9,-100.00,WSW,256,22.0,26.0,-999,-99.99,,,-99.99,,2013-01-02 18:13:00,
2013-01-02 13:23:00,-999.0,-99.9,-100.00,West,268,21.0,24.0,-999,-99.99,,,-99.99,,2013-01-02 18:23:00,
2013-01-02 13:33:00,-999.0,-99.9,-100.00,West,271,22.0,26.0,-999,-99.99,,,-99.99,,2013-01-02 18:33:00,
2013-01-02 13:43:00,-999.0,-99.9,-100.00,West,262,21.0,24.0,-999,-99.99,,,-99.99,,2013-01-02 18:43:00,
2013-01-02 13:54:00,-999.0,-99.9,-100.00,West,269,19.0,24.0,-999,-99.99,,,-99.99,,2013-01-02 18:54:00,
2013-01-02 14:03:00,-999.0,-99.9,-100.00,West,268,19.0,24.0,-999,-99.99,,,-99.99,,2013-01-02 19:03:00,
2013-01-02 14:13:00,-999.0,-99.9,-100.00,West,272,19.0,23.0,-999,-99.99,,,-99.99,,2013-01-02 19:13:00,
2013-01-02 14:23:00,26.0,-99.9,30.11,West,269,21.0,24.0,-999,-99.99,,,-99.99,,2013-01-02 19:23:00,
2013-01-02 14:33:00,-999.0,-99.9,-100.00,West,273,17.0,21.0,-999,-99.99,,,-99.99,,2013-01-02 19:33:00,
2013-01-02 14:43:00,-999.0,-99.9,-100.00,West,267,17.0,21.0,-999,-99.99,,,-99.99,,2013-01-02 19:43:00,
2013-01-02 14:53:00,-999.0,-99.9,-100.00,West,273,19.0,22.0,-999,-99.99,,,-99.99,,2013-01-02 19:53:00,
2013-01-02 15:03:00,-999.0,-99.9,-100.00,West,268,20.0,24.0,-999,-99.99,,,-99.99,,2013-01-02 20:03:00,
2013-01-02 15:12:00,-999.0,-99.9,-100.00,West,267,19.0,24.0,-999,-99.99,,,-99.99,,2013-01-02 20:12:00,
2013-01-02 15:23:00,-999.0,-99.9,-100.00,West,276,17.0,22.0,-999,-99.99,,,-99.99,,2013-01-02 20:23:00,
2013-01-02 15:33:00,-999.0,-99.9,-100.00,West,277,17.0,21.0,-999,-99.99,,,-99.99,,2013-01-02 20:33:00,
2013-01-02 15:43:00,-999.0,-99.9,-100.00,West,281,17.0,24.0,-999,-99.99,,,-99.99,,2013-01-02 20:43:00,
2013-01-02 15:53:00,-999.0,-99.9,-100.00,West,276,18.0,23.0,-999,-99.99,,,-99.99,,2013-01-02 20:53:00,
2013-01-02 16:04:00,-999.0,-99.9,-100.00,WNW,296,13.0,16.0,-999,-99.99,,,-99.99,,2013-01-02 21:04:00,
2013-01-02 16:13:00,-999.0,-99.9,-100.00,WNW,294,13.0,18.0,-999,-99.99,,,-99.99,,2013-01-02 21:13:00,
2013-01-02 16:23:00,-999.0,-99.9,-100.00,WNW,282,13.0,19.0,-999,-99.99,,,-99.99,,2013-01-02 21:23:00,
2013-01-02 16:33:00,-999.0,-99.9,-100.00,WNW,289,15.0,17.0,-999,-99.99,,,-99.99,,2013-01-02 21:33:00,
2013-01-02 16:43:00,-999.0,-99.9,-100.00,WNW,287,14.0,18.0,-999,-99.99,,,-99.99,,2013-01-02 21:43:00,
2013-01-02 16:53:00,-999.0,-99.9,-100.00,WNW,292,14.0,16.0,-999,-99.99,,,-99.99,,2013-01-02 21:53:00,
2013-01-02 17:03:00,-999.0,-99.9,-100.00,WNW,289,10.0,15.0,-999,-99.99,,,-99.99,,2013-01-02 22:03:00,
2013-01-02 17:13:00,-999.0,-99.9,-100.00,West,280,12.0,14.0,-999,-99.99,,,-99.99,,2013-01-02 22:13:00,
2013-01-02 17:22:00,-999.0,-99.9,-100.00,WNW,286,12.0,15.0,-999,-99.99,,,-99.99,,2013-01-02 22:22:00,
2013-01-02 17:33:00,-999.0,-99.9,-100.00,WNW,287,12.0,14.0,-999,-99.99,,,-99.99,,2013-01-02 22:33:00,
2013-01-02 17:43:00,-999.0,-99.9,-100.00,WNW,295,13.0,15.0,-999,-99.99,,,-99.99,,2013-01-02 22:43:00,
2013-01-02 17:53:00,-999.0,-99.9,-100.00,WNW,295,12.0,15.0,-999,-99.99,,,-99.99,,2013-01-02 22:53:00,
2013-01-02 18:03:00,-999.0,-99.9,-100.00,WNW,286,12.0,15.0,-999,-99.99,,,-99.99,,2013-01-02 23:03:00,
2013-01-02 18:13:00,-999.0,-99.9,-100.00,WNW,293,11.0,15.0,-999,-99.99,,,-99.99,,2013-01-02 23:13:00,
2013-01-02 18:23:00,-999.0,-99.9,-100.00,NW,304,10.0,12.0,-999,-99.99,,,-99.99,,2013-01-02 23:23:00,
2013-01-02 18:33:00,-999.0,-99.9,-100.00,WNW,299,9.0,13.0,-999,-99.99,,,-99.99,,2013-01-02 23:33:00,
2013-01-02 18:43:00,-999.0,-99.9,-100.00,WNW,301,11.0,14.0,-999,-99.99,,,-99.99,,2013-01-02 23:43:00,
2013-01-02 18:53:00,-999.0,-99.9,-100.00,WNW,298,10.0,14.0,-999,-99.99,,,-99.99,,2013-01-02 23:53:00,
2013-01-02 19:03:00,-999.0,-99.9,-100.00,WNW,298,11.0,15.0,-999,-99.99,,,-99.99,,2013-01-03 00:03:00,
2013-01-02 19:12:00,-999.0,-99.9,-100.00,WNW,292,11.0,15.0,-999,-99.99,,,-99.99,,2013-01-03 00:12:00,
2013-01-02 19:23:00,-999.0,-99.9,-100.00,NW,304,12.0,15.0,-999,-99.99,,,-99.99,,2013-01-03 00:23:00,
2013-01-02 19:38:00,-999.0,-99.9,-100.00,WNW,300,12.0,16.0,-999,-99.99,,,-99.99,,2013-01-03 00:38:00,
2013-01-02 19:53:00,-999.0,-99.9,-100.00,WNW,292,13.0,15.0,-999,-99.99,,,-99.99,,2013-01-03 00:53:00,
2013-01-02 20:03:00,-999.0,-99.9,-100.00,WNW,294,14.0,17.0,-999,-99.99,,,-99.99,,2013-01-03 01:03:00,
2013-01-02 20:12:00,-999.0,-99.9,-100.00,WNW,293,15.0,17.0,-999,-99.99,,,-99.99,,2013-01-03 01:12:00,
2013-01-02 20:23:00,-999.0,-99.9,-100.00,WNW,294,15.0,16.0,-999,-99.99,,,-99.99,,2013-01-03 01:23:00,
2013-01-02 20:33:00,-999.0,-99.9,-100.00,WNW,286,15.0,18.0,-999,-99.99,,,-99.99,,2013-01-03 01:33:00,
2013-01-02 20:43:00,-999.0,-99.9,-100.00,WNW,287,13.0,16.0,-999,-99.99,,,-99.99,,2013-01-03 01:43:00,
2013-01-02 20:53:00,-999.0,-99.9,-100.00,WNW,296,13.0,14.0,-999,-99.99,,,-99.99,,2013-01-03 01:53:00,
2013-01-02 21:02:00,-999.0,-99.9,-100.00,WNW,291,13.0,16.0,-999,-99.99,,,-99.99,,2013-01-03 02:02:00,
2013-01-02 21:12:00,-999.0,-99.9,-100.00,WNW,290,12.0,15.0,-999,-99.99,,,-99.99,,2013-01-03 02:12:00,
2013-01-02 21:23:00,-999.0,-99.9,-100.00,WNW,289,12.0,14.0,-999,-99.99,,,-99.99,,2013-01-03 02:23:00,
2013-01-02 21:33:00,-999.0,-99.9,-100.00,WNW,293,11.0,13.0,-999,-99.99,,,-99.99,,2013-01-03 02:33:00,
2013-01-02 21:43:00,-999.0,-99.9,-100.00,WNW,293,11.0,13.0,-999,-99.99,,,-99.99,,2013-01-03 02:43:00,
2013-01-02 21:53:00,-999.0,-99.9,-100.00,WNW,293,11.0,13.0,-999,-99.99,,,-99.99,,2013-01-03 02:53:00,
2013-01-02 22:03:00,-999.0,-99.9,-100.00,WNW,294,15.0,18.0,-999,-99.99,,,-99.99,,2013-01-03 03:03:00,
2013-01-02 22:22:00,-999.0,-99.9,-100.00,West,280,13.0,17.0,-999,-99.99,,,-99.99,,2013-01-03 03:22:00,
2013-01-02 22:47:00,-999.0,-99.9,-100.00,WNW,301,12.0,14.0,-999,-99.99,,,-99.99,,2013-01-03 03:47:00,
2013-01-02 22:53:00,-999.0,-99.9,-100.00,WNW,300,13.0,15.0,-999,-99.99,,,-99.99,,2013-01-03 03:53:00,
2013-01-02 23:03:00,-999.0,-99.9,-100.00,NW,307,14.0,18.0,-999,-99.99,,,-99.99,,2013-01-03 04:03:00,
2013-01-02 23:12:00,-999.0,-99.9,-100.00,WNW,302,14.0,16.0,-999,-99.99,,,-99.99,,2013-01-03 04:12:00,
2013-01-02 23:22:00,-999.0,-99.9,-100.00,WNW,295,12.0,15.0,-999,-99.99,,,-99.99,,2013-01-03 04:22:00,
2013-01-02 23:33:00,-999.0,-99.9,-100.00,WNW,299,11.0,15.0,-999,-99.99,,,-99.99,,2013-01-03 04:33:00,
2013-01-02 23:43:00,-999.0,-99.9,-100.00,NW,318,11.0,14.0,-999,-99.99,,,-99.99,,2013-01-03 04:43:00,
2013-01-02 23:53:00,-999.0,-99.9,-100.00,NW,319,12.0,15.0,-999,-99.99,,,-99.99,,2013-01-03 04:53:00,